createdAt,value
2022-09-20T00:01:21.473Z,0.80
2022-09-20T00:03:50.949Z,0.83
2022-09-20T00:06:21.012Z,0.87
2022-09-20T00:08:49.623Z,0.80
2022-09-20T00:11:20.606Z,0.70
2022-09-20T00:13:50.826Z,0.70
2022-09-20T00:16:21.320Z,0.90
2022-09-20T00:18:50.587Z,0.80
2022-09-20T00:21:20.240Z,0.80
2022-09-20T00:23:48.000Z,0.77
2022-09-20T00:26:17.414Z,0.60
2022-09-20T00:28:47.079Z,0.80
2022-09-20T00:31:16.128Z,0.80
2022-09-20T00:34:01.549Z,0.73
2022-09-20T00:36:29.456Z,1.00
2022-09-20T00:38:57.753Z,0.80
2022-09-20T00:41:26.579Z,0.80
2022-09-20T00:43:56.423Z,0.70
2022-09-20T00:46:28.779Z,0.80
2022-09-20T00:49:02.162Z,0.93
2022-09-20T00:51:33.317Z,0.80
2022-09-20T00:54:04.182Z,0.80
2022-09-20T00:56:34.945Z,0.80
2022-09-20T00:59:09.506Z,0.77
2022-09-20T01:01:37.770Z,0.70
2022-09-20T01:04:06.221Z,0.77
2022-09-20T01:06:35.977Z,1.10
2022-09-20T01:09:07.629Z,0.80
2022-09-20T01:11:36.577Z,0.87
2022-09-20T01:14:05.670Z,0.70
2022-09-20T01:16:35.369Z,0.87
2022-09-20T01:19:09.516Z,1.00
2022-09-20T01:21:37.477Z,1.03
2022-09-20T01:24:11.742Z,0.80
2022-09-20T01:26:59.527Z,0.83
2022-09-20T01:29:48.516Z,0.90
2022-09-20T01:32:21.541Z,0.73
2022-09-20T01:34:54.953Z,0.70
2022-09-20T01:37:27.515Z,0.77
2022-09-20T01:40:03.263Z,0.80
2022-09-20T01:42:34.190Z,1.00
2022-09-20T01:45:13.192Z,1.40
2022-09-20T01:47:48.082Z,1.00
2022-09-20T01:50:25.000Z,0.90
2022-09-20T01:53:29.918Z,0.90
2022-09-20T01:56:37.278Z,1.23
2022-09-20T01:59:24.179Z,0.90
2022-09-20T02:02:15.068Z,1.00
2022-09-20T02:05:10.404Z,1.00
2022-09-20T02:08:08.057Z,0.70
2022-09-20T02:11:09.467Z,0.90
2022-09-20T02:13:56.807Z,0.87
2022-09-20T02:16:44.552Z,1.00
2022-09-20T02:19:36.189Z,1.33
2022-09-20T02:22:30.125Z,0.90
2022-09-20T02:25:09.775Z,0.90
2022-09-20T02:27:48.896Z,0.90
2022-09-20T02:30:29.334Z,0.90
2022-09-20T02:33:20.835Z,0.80
2022-09-20T02:36:02.998Z,0.97
2022-09-20T02:38:42.994Z,1.00
2022-09-20T02:41:32.096Z,1.00
2022-09-20T02:44:08.249Z,1.00
2022-09-20T02:46:46.266Z,0.90
2022-09-20T02:49:22.613Z,1.00
2022-09-20T02:51:57.047Z,1.07
2022-09-20T02:54:35.584Z,1.20
2022-09-20T02:57:11.280Z,0.73
2022-09-20T02:59:45.823Z,0.90
2022-09-20T03:02:25.775Z,0.77
2022-09-20T03:05:08.689Z,0.83
2022-09-20T03:07:52.554Z,1.10
2022-09-20T03:10:27.539Z,0.87
2022-09-20T03:13:09.770Z,1.27
2022-09-20T03:15:47.948Z,1.17
2022-09-20T03:18:18.250Z,1.30
2022-09-20T03:20:57.761Z,1.13
2022-09-20T03:23:42.927Z,0.70
2022-09-20T03:26:22.661Z,1.20
2022-09-20T03:28:58.910Z,0.93
2022-09-20T03:31:40.869Z,1.23
2022-09-20T03:34:19.437Z,1.00
2022-09-20T03:37:02.653Z,1.20
2022-09-20T03:39:52.612Z,0.93
2022-09-20T03:42:23.912Z,1.47
2022-09-20T03:45:33.843Z,1.23
2022-09-20T03:48:31.320Z,1.40
2022-09-20T03:51:13.959Z,1.10
2022-09-20T03:54:17.708Z,1.40
2022-09-20T03:57:13.256Z,1.27
2022-09-20T03:59:59.539Z,1.00
2022-09-20T04:02:45.129Z,0.90
2022-09-20T04:05:17.092Z,1.10
2022-09-20T04:07:57.064Z,1.10
2022-09-20T04:10:45.420Z,1.40
2022-09-20T04:13:27.557Z,1.13
2022-09-20T04:16:08.718Z,1.20
2022-09-20T04:18:43.224Z,1.20
2022-09-20T04:21:17.292Z,1.27
2022-09-20T04:23:53.305Z,1.10
2022-09-20T04:26:26.699Z,1.00
2022-09-20T04:29:00.046Z,1.10
2022-09-20T04:31:37.028Z,1.10
2022-09-20T04:34:11.869Z,1.10
2022-09-20T04:36:57.196Z,1.00
2022-09-20T04:39:36.606Z,1.60
2022-09-20T04:42:33.333Z,1.07
2022-09-20T04:45:23.226Z,0.90
2022-09-20T04:48:40.670Z,1.17
2022-09-20T04:51:52.260Z,1.20
2022-09-20T04:55:05.320Z,1.40
2022-09-20T04:58:07.293Z,1.10
2022-09-20T05:00:54.614Z,1.20
2022-09-20T05:04:15.604Z,1.17
2022-09-20T05:07:20.453Z,1.17
2022-09-20T05:10:22.302Z,1.20
2022-09-20T05:13:07.009Z,1.23
2022-09-20T05:15:44.297Z,1.37
2022-09-20T05:18:33.105Z,1.30
2022-09-20T05:21:16.009Z,1.53
2022-09-20T05:23:58.622Z,1.50
2022-09-20T05:26:36.848Z,1.47
2022-09-20T05:29:11.584Z,1.87
2022-09-20T05:31:47.254Z,1.70
2022-09-20T05:34:21.526Z,1.07
2022-09-20T05:36:58.291Z,1.70
2022-09-20T05:39:37.593Z,1.20
2022-09-20T05:42:18.740Z,1.43
2022-09-20T05:44:58.704Z,1.20
2022-09-20T05:47:37.996Z,1.30
2022-09-20T05:50:35.272Z,1.57
2022-09-20T05:53:16.459Z,1.57
2022-09-20T05:55:53.502Z,1.40
2022-09-20T05:58:41.073Z,1.83
2022-09-20T06:01:14.888Z,1.40
2022-09-20T06:03:54.260Z,1.40
2022-09-20T06:06:32.401Z,1.37
2022-09-20T06:09:41.522Z,1.27
2022-09-20T06:12:38.688Z,1.60
2022-09-20T06:15:19.054Z,1.50
2022-09-20T06:17:56.226Z,1.33
2022-09-20T06:20:32.108Z,2.13
2022-09-20T06:23:01.919Z,1.40
2022-09-20T06:25:33.159Z,1.57
2022-09-20T06:28:06.530Z,1.40
2022-09-20T06:30:40.558Z,1.80
2022-09-20T06:33:15.938Z,1.33
2022-09-20T06:35:48.774Z,1.40
2022-09-20T06:38:55.656Z,1.50
2022-09-20T06:41:30.433Z,1.10
2022-09-20T06:43:59.406Z,1.10
2022-09-20T06:46:28.826Z,1.60
2022-09-20T06:48:56.905Z,1.50
2022-09-20T06:51:28.177Z,1.73
2022-09-20T06:53:57.649Z,1.87
2022-09-20T06:56:28.227Z,1.63
2022-09-20T06:58:56.305Z,1.50
2022-09-20T07:01:30.290Z,1.90
2022-09-20T07:03:59.013Z,1.80
2022-09-20T07:06:29.135Z,1.60
2022-09-20T07:08:56.876Z,2.10
2022-09-20T07:11:24.747Z,1.70
2022-09-20T07:13:54.296Z,1.83
2022-09-20T07:16:22.551Z,1.87
2022-09-20T07:18:52.208Z,1.40
2022-09-20T07:21:21.549Z,1.93
2022-09-20T07:23:51.122Z,1.83
2022-09-20T07:26:21.306Z,1.70
2022-09-20T07:28:49.369Z,2.20
2022-09-20T07:31:17.590Z,2.13
2022-09-20T07:33:45.411Z,1.70
2022-09-20T07:36:13.357Z,1.70
2022-09-20T07:38:41.909Z,2.47
2022-09-20T07:41:11.565Z,2.00
2022-09-20T07:43:39.357Z,1.97
2022-09-20T07:46:07.430Z,1.60
2022-09-20T07:48:36.997Z,1.63
2022-09-20T07:51:08.746Z,1.87
2022-09-20T07:53:37.208Z,2.00
2022-09-20T07:56:07.195Z,2.00
2022-09-20T07:58:37.003Z,1.90
2022-09-20T08:01:07.348Z,1.37
2022-09-20T08:03:35.953Z,1.73
2022-09-20T08:06:07.164Z,2.03
2022-09-20T08:08:36.190Z,2.30
2022-09-20T08:11:06.340Z,1.50
2022-09-20T08:16:28.008Z,2.67
2022-09-20T08:18:58.728Z,2.20
2022-09-20T08:21:28.672Z,2.60
2022-09-20T08:23:56.424Z,2.43
2022-09-20T08:26:25.478Z,2.37
2022-09-20T08:28:56.336Z,1.93
2022-09-20T08:31:26.023Z,2.23
2022-09-20T08:33:55.397Z,1.77
2022-09-20T08:36:25.673Z,2.47
2022-09-20T08:41:47.063Z,3.03
2022-09-20T08:44:25.040Z,3.10
2022-09-20T08:47:02.673Z,2.93
2022-09-20T08:49:31.452Z,3.43
2022-09-20T08:52:01.214Z,3.17
2022-09-20T08:54:33.098Z,2.77
2022-09-20T08:57:07.013Z,3.43
2022-09-20T08:59:36.131Z,3.53
2022-09-20T09:02:04.091Z,2.97
2022-09-20T09:04:36.497Z,3.20
2022-09-20T09:07:05.882Z,2.53
2022-09-20T09:09:38.288Z,2.83
2022-09-20T09:12:06.891Z,2.73
2022-09-20T09:14:49.536Z,2.83
2022-09-20T09:17:19.172Z,2.00
2022-09-20T09:19:49.285Z,2.07
2022-09-20T09:22:24.639Z,3.00
2022-09-20T09:25:25.029Z,2.13
2022-09-20T09:27:55.950Z,3.30
2022-09-20T09:30:28.246Z,2.30
2022-09-20T09:33:18.396Z,2.70
2022-09-20T09:35:53.500Z,2.43
2022-09-20T09:38:24.092Z,2.50
2022-09-20T09:40:54.141Z,2.10
2022-09-20T09:43:26.878Z,2.27
2022-09-20T09:45:57.199Z,2.20
2022-09-20T09:48:27.545Z,2.37
2022-09-20T09:51:12.595Z,2.00
2022-09-20T09:53:41.186Z,2.27
2022-09-20T09:56:33.304Z,1.83
2022-09-20T09:59:28.277Z,2.50
2022-09-20T10:02:04.306Z,1.90
2022-09-20T10:04:38.209Z,1.53
2022-09-20T10:07:15.285Z,1.27
2022-09-20T10:10:05.133Z,1.40
2022-09-20T10:12:55.137Z,1.50
2022-09-20T10:15:31.629Z,1.90
2022-09-20T10:18:22.306Z,1.47
2022-09-20T10:21:00.234Z,1.93
2022-09-20T10:26:47.929Z,1.80
2022-09-20T10:29:23.066Z,2.00
2022-09-20T10:31:58.345Z,1.53
2022-09-20T10:34:45.739Z,1.67
2022-09-20T10:37:20.081Z,1.23
2022-09-20T10:39:57.096Z,2.07
2022-09-20T10:42:54.735Z,1.53
2022-09-20T10:45:59.583Z,1.63
2022-09-20T10:48:28.414Z,1.87
2022-09-20T10:51:02.609Z,2.53
2022-09-20T10:53:39.055Z,1.67
2022-09-20T10:56:20.656Z,1.40
2022-09-20T10:59:14.405Z,1.57
2022-09-20T11:01:54.444Z,1.40
2022-09-20T11:04:44.622Z,1.50
2022-09-20T11:07:19.763Z,1.53
2022-09-20T11:09:52.544Z,1.37
2022-09-20T11:12:27.382Z,1.33
2022-09-20T11:14:58.779Z,1.10
2022-09-20T11:17:32.522Z,1.40
2022-09-20T11:20:07.794Z,1.40
2022-09-20T11:22:43.613Z,1.30
2022-09-20T11:25:20.915Z,2.13
2022-09-20T11:27:54.498Z,1.60
2022-09-20T11:30:23.702Z,0.90
2022-09-20T11:32:54.666Z,1.27
2022-09-20T11:35:29.083Z,1.50
2022-09-20T11:38:09.497Z,1.07
2022-09-20T11:40:40.929Z,0.87
2022-09-20T11:43:10.717Z,1.60
2022-09-20T11:45:41.915Z,1.43
2022-09-20T11:48:15.114Z,1.40
2022-09-20T11:51:06.371Z,1.03
2022-09-20T11:53:51.403Z,1.23
2022-09-20T11:56:21.421Z,1.20
2022-09-20T11:58:50.928Z,1.10
2022-09-20T12:01:28.711Z,1.23
2022-09-20T12:04:20.510Z,1.30
2022-09-20T12:06:48.751Z,1.40
2022-09-20T12:09:30.003Z,1.50
2022-09-20T12:11:59.509Z,1.70
2022-09-20T12:14:29.143Z,1.10
2022-09-20T12:16:57.761Z,1.70
2022-09-20T12:19:46.492Z,1.87
2022-09-20T12:22:29.385Z,1.50
2022-09-20T12:25:34.555Z,1.60
2022-09-20T12:28:03.834Z,1.60
2022-09-20T12:30:33.797Z,1.30
2022-09-20T12:33:02.129Z,1.33
2022-09-20T12:35:54.281Z,1.40
2022-09-20T12:38:33.297Z,1.10
2022-09-20T12:41:27.835Z,1.50
2022-09-20T12:44:20.509Z,1.63
2022-09-20T12:46:55.025Z,1.20
2022-09-20T12:50:10.652Z,1.67
2022-09-20T12:52:57.455Z,1.37
2022-09-20T12:55:43.554Z,1.37
2022-09-20T12:58:35.729Z,1.30
2022-09-20T13:01:34.578Z,1.77
2022-09-20T13:04:55.612Z,1.17
2022-09-20T13:07:47.318Z,1.00
2022-09-20T13:10:24.700Z,1.50
2022-09-20T13:12:58.339Z,1.30
2022-09-20T13:15:27.260Z,1.47
2022-09-20T13:17:58.985Z,1.23
2022-09-20T13:20:30.888Z,1.70
2022-09-20T13:23:00.579Z,1.10
2022-09-20T13:25:29.389Z,1.37
2022-09-20T13:28:07.528Z,1.10
2022-09-20T13:30:35.367Z,1.30
2022-09-20T13:33:21.815Z,0.90
2022-09-20T13:35:51.909Z,1.80
2022-09-20T13:38:22.536Z,1.50
2022-09-20T13:40:51.105Z,1.10
2022-09-20T13:43:28.097Z,1.00
2022-09-20T13:45:58.285Z,1.33
2022-09-20T13:48:28.768Z,1.50
2022-09-20T13:50:57.749Z,1.27
2022-09-20T13:53:41.036Z,1.10
2022-09-20T13:56:12.524Z,0.90
2022-09-20T13:58:40.345Z,1.30
2022-09-20T14:01:23.344Z,1.20
2022-09-20T14:03:53.742Z,1.40
2022-09-20T14:06:28.024Z,1.23
2022-09-20T14:08:56.914Z,1.37
2022-09-20T14:11:27.999Z,1.20
2022-09-20T14:13:58.694Z,1.07
2022-09-20T14:16:30.940Z,1.23
2022-09-20T14:19:01.061Z,1.00
2022-09-20T14:21:33.118Z,0.97
2022-09-20T14:24:04.047Z,1.30
2022-09-20T14:26:34.727Z,1.20
2022-09-20T14:29:30.255Z,2.00
2022-09-20T14:31:59.217Z,1.17
2022-09-20T14:34:29.097Z,0.93
2022-09-20T14:37:06.498Z,1.00
2022-09-20T14:39:49.057Z,1.00
2022-09-20T14:42:21.964Z,1.17
2022-09-20T14:44:52.648Z,1.23
2022-09-20T14:47:28.243Z,1.03
2022-09-20T14:49:58.678Z,1.70
2022-09-20T14:52:38.148Z,1.00
2022-09-20T14:55:20.100Z,1.03
2022-09-20T14:57:48.772Z,1.07
2022-09-20T15:00:19.291Z,1.40
2022-09-20T15:02:48.126Z,1.00
2022-09-20T15:05:23.816Z,1.03
2022-09-20T15:07:51.632Z,1.03
2022-09-20T15:10:19.597Z,1.00
2022-09-20T15:12:47.393Z,0.90
2022-09-20T15:15:17.292Z,0.97
2022-09-20T15:17:46.828Z,1.00
2022-09-20T15:20:23.242Z,1.20
2022-09-20T15:22:53.284Z,1.13
2022-09-20T15:25:22.152Z,0.90
2022-09-20T15:27:51.701Z,1.90
2022-09-20T15:30:20.881Z,1.20
2022-09-20T15:32:48.697Z,1.20
2022-09-20T15:35:17.014Z,1.40
2022-09-20T15:37:45.652Z,1.20
2022-09-20T15:40:15.425Z,1.10
2022-09-20T15:42:43.262Z,0.90
2022-09-20T15:45:12.674Z,0.80
2022-09-20T15:47:41.272Z,1.30
2022-09-20T15:50:10.844Z,1.00
2022-09-20T15:52:40.554Z,0.90
2022-09-20T15:55:09.535Z,0.97
2022-09-20T15:57:39.510Z,1.00
2022-09-20T16:00:08.608Z,1.10
2022-09-20T16:02:36.809Z,1.27
2022-09-20T16:05:05.846Z,0.90
2022-09-20T16:07:33.564Z,1.00
2022-09-20T16:10:01.301Z,0.80
2022-09-20T16:12:29.049Z,1.10
2022-09-20T16:14:58.135Z,1.20
2022-09-20T16:17:39.794Z,1.30
2022-09-20T16:20:08.620Z,1.30
2022-09-20T16:22:36.403Z,0.93
2022-09-20T16:25:05.833Z,0.87
2022-09-20T16:27:34.131Z,0.97
2022-09-20T16:30:03.933Z,1.00
2022-09-20T16:32:31.701Z,1.20
2022-09-20T16:35:01.453Z,1.30
2022-09-20T16:37:32.746Z,1.40
2022-09-20T16:40:01.045Z,1.40
2022-09-20T16:42:29.383Z,1.30
2022-09-20T16:44:57.114Z,1.07
2022-09-20T16:47:26.315Z,0.73
2022-09-20T16:49:54.657Z,1.00
2022-09-20T16:52:22.631Z,0.90
2022-09-20T16:54:50.435Z,1.00
2022-09-20T16:57:18.791Z,1.17
2022-09-20T16:59:47.820Z,1.00
2022-09-20T17:02:15.708Z,1.30
2022-09-20T17:04:44.849Z,1.13
2022-09-20T17:07:12.679Z,1.60
2022-09-20T17:09:40.450Z,1.20
2022-09-20T17:12:09.487Z,1.57
2022-09-20T17:14:38.016Z,2.17
2022-09-20T17:17:06.334Z,3.07
2022-09-20T17:19:34.337Z,1.43
2022-09-20T17:22:03.496Z,1.90
2022-09-20T17:24:31.266Z,1.70
2022-09-20T17:26:59.091Z,3.30
2022-09-20T17:29:27.576Z,3.00
2022-09-20T17:31:59.703Z,2.30
2022-09-20T17:34:29.297Z,1.93
2022-09-20T17:36:57.136Z,1.63
2022-09-20T17:39:26.281Z,1.43
2022-09-20T17:41:54.060Z,1.60
2022-09-20T17:44:22.516Z,1.90
2022-09-20T17:46:53.694Z,1.60
2022-09-20T17:49:22.872Z,1.50
2022-09-20T17:51:52.502Z,1.67
2022-09-20T17:54:20.901Z,1.53
2022-09-20T17:56:51.474Z,1.50
2022-09-20T17:59:20.604Z,1.80
2022-09-20T18:01:50.356Z,1.90
2022-09-20T18:04:20.605Z,1.70
2022-09-20T18:06:49.633Z,1.83
2022-09-20T18:09:19.195Z,2.33
2022-09-20T18:11:49.812Z,1.10
2022-09-20T18:14:19.987Z,1.53
2022-09-20T18:16:48.101Z,1.27
2022-09-20T18:19:16.087Z,1.27
2022-09-20T18:21:44.372Z,1.80
2022-09-20T18:24:12.621Z,1.57
2022-09-20T18:26:40.986Z,1.27
2022-09-20T18:29:12.153Z,1.30
2022-09-20T18:31:43.016Z,1.53
2022-09-20T18:34:15.239Z,1.73
2022-09-20T18:36:43.078Z,1.63
2022-09-20T18:39:11.045Z,1.33
2022-09-20T18:41:41.106Z,1.77
2022-09-20T18:44:13.491Z,1.70
2022-09-20T18:46:41.563Z,1.33
2022-09-20T18:49:14.372Z,1.53
2022-09-20T18:51:43.103Z,1.60
2022-09-20T18:54:11.820Z,1.40
2022-09-20T18:56:40.928Z,1.77
2022-09-20T18:59:18.066Z,1.37
2022-09-20T19:02:08.026Z,1.50
2022-09-20T19:04:52.380Z,2.13
2022-09-20T19:07:28.887Z,2.30
2022-09-20T19:10:04.045Z,1.90
2022-09-20T19:12:39.036Z,2.47
2022-09-20T19:15:43.386Z,2.53
2022-09-20T19:18:40.844Z,2.00
2022-09-20T19:21:21.827Z,1.97
2022-09-20T19:24:03.580Z,1.20
2022-09-20T19:26:37.788Z,1.57
2022-09-20T19:29:13.405Z,1.70
2022-09-20T19:31:41.468Z,1.40
2022-09-20T19:34:18.171Z,1.47
2022-09-20T19:36:58.288Z,1.47
2022-09-20T19:39:34.225Z,1.30
2022-09-20T19:42:11.382Z,1.27
2022-09-20T19:44:51.498Z,1.30
2022-09-20T19:47:28.810Z,1.40
2022-09-20T19:50:04.875Z,1.80
2022-09-20T19:52:33.112Z,1.67
2022-09-20T19:55:01.838Z,1.40
2022-09-20T19:57:35.245Z,1.97
2022-09-20T20:00:08.718Z,1.40
2022-09-20T20:02:37.667Z,1.57
2022-09-20T20:05:08.748Z,1.27
2022-09-20T20:07:43.101Z,2.23
2022-09-20T20:10:19.359Z,1.90
2022-09-20T20:12:56.117Z,1.37
2022-09-20T20:15:38.477Z,1.33
2022-09-20T20:18:16.632Z,1.83
2022-09-20T20:20:49.952Z,1.70
2022-09-20T20:23:41.112Z,1.73
2022-09-20T20:26:10.820Z,1.80
2022-09-20T20:28:38.978Z,1.30
2022-09-20T20:31:09.114Z,1.53
2022-09-20T20:33:36.928Z,1.73
2022-09-20T20:36:08.844Z,1.20
2022-09-20T20:38:37.661Z,1.80
2022-09-20T20:41:07.097Z,2.00
2022-09-20T20:43:36.502Z,2.13
2022-09-20T20:46:05.124Z,1.73
2022-09-20T20:48:33.503Z,1.40
2022-09-20T20:51:02.598Z,1.77
2022-09-20T20:53:33.314Z,1.73
2022-09-20T20:56:07.234Z,1.60
2022-09-20T20:58:36.573Z,1.80
2022-09-20T21:01:12.592Z,2.00
2022-09-20T21:03:41.597Z,2.10
2022-09-20T21:06:10.100Z,1.40
2022-09-20T21:08:40.747Z,1.20
2022-09-20T21:11:11.306Z,1.43
2022-09-20T21:13:39.403Z,1.20
2022-09-20T21:16:09.555Z,1.50
2022-09-20T21:18:38.045Z,1.37
2022-09-20T21:21:13.482Z,1.63
2022-09-20T21:23:43.263Z,1.17
2022-09-20T21:26:12.449Z,1.40
2022-09-20T21:28:42.363Z,1.70
2022-09-20T21:31:11.791Z,1.57
2022-09-20T21:33:41.250Z,1.80
2022-09-20T21:36:10.899Z,2.90
2022-09-20T21:38:38.860Z,1.30
2022-09-20T21:41:12.580Z,1.50
2022-09-20T21:43:42.656Z,1.60
2022-09-20T21:46:14.549Z,1.50
2022-09-20T21:48:42.485Z,1.47
2022-09-20T21:51:12.869Z,2.10
2022-09-20T21:53:41.017Z,2.53
2022-09-20T21:56:11.844Z,2.80
2022-09-20T21:58:40.208Z,1.83
2022-09-20T22:01:11.673Z,2.00
2022-09-20T22:03:41.430Z,1.93
2022-09-20T23:02:33.447Z,2.00
2022-09-20T23:05:01.201Z,1.27
2022-09-20T23:07:28.957Z,1.93
2022-09-20T23:09:57.025Z,1.50
2022-09-20T23:12:24.779Z,2.00
2022-09-20T23:14:52.476Z,1.50
2022-09-20T23:17:20.265Z,1.57
2022-09-20T23:19:49.388Z,1.83
2022-09-20T23:22:17.101Z,1.20
2022-09-20T23:24:44.822Z,1.50
2022-09-20T23:27:12.573Z,1.63
2022-09-20T23:29:40.302Z,1.50
2022-09-20T23:32:08.152Z,1.60
2022-09-20T23:34:35.857Z,1.50
2022-09-20T23:37:05.981Z,1.67
2022-09-20T23:39:33.756Z,1.57
2022-09-20T23:42:01.506Z,1.40
2022-09-20T23:44:29.243Z,1.40
2022-09-20T23:46:57.054Z,1.30
2022-09-20T23:49:24.797Z,1.60
2022-09-20T23:51:52.549Z,1.60
2022-09-20T23:54:21.628Z,1.20
2022-09-20T23:56:49.637Z,1.60
2022-09-20T23:59:17.645Z,1.40
